Time;durP1;ratioP1;P1;durP2;ratioP2;P2;SDS_P1;SDS_P2;PMS_P1;PMS_P2;Temp;Humidity;BMP_temperature;BMP_pressure;BME280_temperature;BME280_humidity;BME280_pressure;Samples;Min_cycle;Max_cycle;Signal;HPM_P1;HPM_P2
2023/06/26 00:00:00;;;;;;;9.40;6.60;;;;;;;14.62;77.96;100499.10;105805;275;39189;-73
2023/06/26 00:02:36;;;;;;;6.40;5.80;;;;;;;14.60;77.89;100497.98;105774;275;38351;-73
2023/06/26 00:05:11;;;;;;;6.60;6.00;;;;;;;14.56;77.89;100496.10;105815;275;38262;-73
2023/06/26 00:07:45;;;;;;;7.70;6.40;;;;;;;14.54;78.07;100492.88;105775;275;39011;-73
2023/06/26 00:10:19;;;;;;;8.00;6.80;;;;;;;14.52;78.01;100498.42;105811;275;38366;-73
2023/06/26 00:12:53;;;;;;;10.40;6.80;;;;;;;14.44;78.15;100499.46;105806;275;38272;-73
2023/06/26 00:15:31;;;;;;;10.20;7.00;;;;;;;14.40;78.37;100493.92;105789;275;39418;-73
2023/06/26 00:18:05;;;;;;;7.40;6.60;;;;;;;14.36;78.46;100494.47;105812;275;38868;-73
2023/06/26 00:20:39;;;;;;;7.50;6.20;;;;;;;14.35;78.75;100496.60;105509;275;914950;-73
2023/06/26 00:23:16;;;;;;;8.00;6.50;;;;;;;14.35;78.74;100493.98;105729;276;39729;-73
2023/06/26 00:25:50;;;;;;;8.50;7.40;;;;;;;14.32;78.79;100494.50;105689;277;39766;-73
2023/06/26 00:28:24;;;;;;;8.70;7.80;;;;;;;14.31;78.94;100491.06;105663;277;38240;-73
2023/06/26 00:30:58;;;;;;;10.30;7.60;;;;;;;14.27;78.99;100491.24;105696;277;40130;-73
2023/06/26 00:33:32;;;;;;;8.20;7.10;;;;;;;14.27;79.24;100494.06;105694;276;38242;-73
2023/06/26 00:36:07;;;;;;;7.60;6.90;;;;;;;14.25;79.02;100486.43;105451;277;38024;-73
2023/06/26 00:38:42;;;;;;;8.40;6.70;;;;;;;14.22;79.11;100486.06;105657;277;38503;-73
2023/06/26 00:41:16;;;;;;;8.70;6.70;;;;;;;14.23;79.33;100486.54;105673;276;38303;-73
2023/06/26 00:43:50;;;;;;;8.80;7.20;;;;;;;14.21;79.36;100491.19;105655;277;38252;-73
2023/06/26 00:46:24;;;;;;;10.80;7.00;;;;;;;14.16;79.38;100487.94;105673;277;39436;-73
2023/06/26 00:48:59;;;;;;;9.20;7.00;;;;;;;14.13;79.73;100482.50;105485;277;38696;-73
2023/06/26 00:51:33;;;;;;;8.00;6.70;;;;;;;14.13;79.71;100484.39;105671;265;38253;-73
2023/06/26 00:54:08;;;;;;;9.20;7.00;;;;;;;14.12;79.71;100483.55;105471;277;38729;-73
2023/06/26 00:56:42;;;;;;;10.80;8.20;;;;;;;14.09;79.71;100484.25;105663;277;38830;-73
2023/06/26 00:59:16;;;;;;;9.20;7.80;;;;;;;14.07;79.72;100475.40;105455;277;39414;-73
2023/06/26 01:01:50;;;;;;;8.90;7.20;;;;;;;14.05;79.99;100477.79;105453;277;39697;-73
2023/06/26 01:04:27;;;;;;;10.60;8.30;;;;;;;14.01;79.71;100478.90;106110;277;39277;-73
2023/06/26 01:07:01;;;;;;;9.90;7.30;;;;;;;13.93;79.86;100472.27;105679;277;39108;-73
2023/06/26 01:09:36;;;;;;;10.80;7.40;;;;;;;13.92;80.28;100472.14;105704;276;38253;-73
2023/06/26 01:12:10;;;;;;;10.40;7.50;;;;;;;13.92;80.39;100473.00;105686;276;39081;-73
2023/06/26 01:14:44;;;;;;;10.10;7.80;;;;;;;13.92;80.44;100471.93;105468;277;38589;-73
2023/06/26 01:17:18;;;;;;;9.00;7.30;;;;;;;13.94;80.72;100469.92;105677;277;39597;-73
2023/06/26 01:19:52;;;;;;;8.90;7.20;;;;;;;13.97;80.81;100467.37;105397;278;38611;-74
2023/06/26 01:22:31;;;;;;;10.70;8.50;;;;;;;13.95;80.59;100462.35;106122;277;39215;-74
2023/06/26 01:25:17;;;;;;;8.60;7.70;;;;;;;13.92;80.63;100463.23;105452;277;39489;-72
2023/06/26 01:27:52;;;;;;;10.60;8.70;;;;;;;13.90;80.66;100462.41;105673;277;38243;-73
2023/06/26 01:30:26;;;;;;;8.30;7.40;;;;;;;13.89;80.70;100455.98;105654;277;38581;-73
2023/06/26 01:33:00;;;;;;;10.90;7.90;;;;;;;13.85;80.57;100458.30;106080;277;38689;-73
2023/06/26 01:35:34;;;;;;;8.30;7.50;;;;;;;13.80;80.49;100457.83;106106;277;38400;-73
2023/06/26 01:38:18;;;;;;;13.30;8.60;;;;;;;13.82;80.88;100455.84;105656;277;38962;-73
2023/06/26 01:40:53;;;;;;;9.00;8.20;;;;;;;13.82;80.90;100455.30;105682;277;38931;-73
2023/06/26 01:43:32;;;;;;;9.60;8.40;;;;;;;13.79;80.94;100454.04;106074;277;39424;-73
2023/06/26 01:46:11;;;;;;;11.20;7.90;;;;;;;13.75;80.56;100456.85;105377;277;39396;-73
2023/06/26 01:48:48;;;;;;;;;;;;;;;13.72;80.71;100453.18;105430;277;40259;-73
2023/06/26 01:51:22;;;;;;;10.30;7.80;;;;;;;13.61;80.92;100451.92;105684;277;38250;-73
2023/06/26 01:53:57;;;;;;;9.20;7.70;;;;;;;13.59;80.87;100450.61;105673;276;38276;-73
2023/06/26 01:56:31;;;;;;;10.70;8.40;;;;;;;13.56;80.85;100448.70;105407;277;38297;-73
2023/06/26 01:59:05;;;;;;;8.60;7.70;;;;;;;13.54;80.90;100447.56;105680;277;38246;-73
2023/06/26 02:01:40;;;;;;;9.00;7.60;;;;;;;13.53;81.01;100447.59;105397;278;38537;-73
2023/06/26 02:04:14;;;;;;;8.40;7.60;;;;;;;13.54;81.03;100446.16;106145;277;38445;-73
2023/06/26 02:06:48;;;;;;;8.70;7.70;;;;;;;13.54;81.11;100444.27;106144;277;39672;-74
2023/06/26 02:09:23;;;;;;;9.40;8.30;;;;;;;13.53;81.10;100442.72;106107;284;38684;-74
2023/06/26 02:11:58;;;;;;;9.20;7.70;;;;;;;13.54;81.25;100444.04;106089;277;38295;-73
2023/06/26 02:14:32;;;;;;;8.20;7.00;;;;;;;13.54;81.11;100447.56;105387;277;38461;-73
2023/06/26 02:17:08;;;;;;;8.60;6.90;;;;;;;13.52;81.05;100447.84;105669;277;38508;-73
2023/06/26 02:19:47;;;;;;;8.50;7.70;;;;;;;13.49;81.27;100446.58;105669;277;39550;-73
2023/06/26 02:22:21;;;;;;;8.20;7.40;;;;;;;13.48;81.32;100441.36;105676;277;38289;-73
2023/06/26 02:24:55;;;;;;;9.40;7.60;;;;;;;13.45;81.15;100442.20;105684;277;38275;-73
2023/06/26 02:27:29;;;;;;;10.30;7.70;;;;;;;13.39;81.19;100443.22;105669;277;38209;-73
2023/06/26 02:30:04;;;;;;;7.40;6.70;;;;;;;13.36;81.35;100439.83;106082;277;38817;-73
2023/06/26 02:32:38;;;;;;;8.20;7.20;;;;;;;13.35;81.43;100434.98;105679;277;40095;-73
2023/06/26 02:35:13;;;;;;;8.20;7.40;;;;;;;13.35;81.40;100433.40;106116;277;38245;-73
2023/06/26 02:37:47;;;;;;;9.10;7.50;;;;;;;13.33;81.44;100433.15;105383;278;38276;-73
2023/06/26 02:40:22;;;;;;;9.80;7.70;;;;;;;13.36;81.88;100436.52;105665;277;39477;-73
2023/06/26 02:42:56;;;;;;;8.50;7.70;;;;;;;13.39;81.90;100434.63;106127;276;39275;-73
2023/06/26 02:45:30;;;;;;;8.00;7.20;;;;;;;13.38;81.93;100433.79;105466;277;39440;-74
2023/06/26 02:48:05;;;;;;;9.40;6.80;;;;;;;13.39;81.78;100437.94;105677;277;39399;-74
2023/06/26 02:50:39;;;;;;;8.00;7.20;;;;;;;13.37;81.84;100440.31;105564;277;174261;-73
2023/06/26 02:53:13;;;;;;;8.20;7.30;;;;;;;13.38;81.77;100443.09;105040;277;900496;-73
2023/06/26 02:55:48;;;;;;;8.00;7.30;;;;;;;13.39;81.98;100444.09;105665;277;40046;-74
2023/06/26 02:58:22;;;;;;;7.80;7.10;;;;;;;13.36;81.90;100444.77;105677;277;38613;-74
2023/06/26 03:00:56;;;;;;;8.70;6.70;;;;;;;13.35;82.08;100444.79;105670;277;38227;-74
2023/06/26 03:03:40;;;;;;;10.50;7.30;;;;;;;13.39;82.14;100443.73;105652;272;38453;-74
2023/06/26 03:06:14;;;;;;;7.40;6.60;;;;;;;13.42;82.39;100440.44;105678;277;39628;-73
2023/06/26 03:08:48;;;;;;;7.80;7.10;;;;;;;13.44;82.47;100441.21;105635;277;39667;-73
2023/06/26 03:11:22;;;;;;;8.10;7.20;;;;;;;13.46;82.54;100439.40;105639;277;38491;-73
2023/06/26 03:13:57;;;;;;;7.20;6.50;;;;;;;13.48;82.71;100445.08;105630;281;38372;-73
2023/06/26 03:16:31;;;;;;;7.60;7.00;;;;;;;13.50;82.87;100442.15;106079;269;38314;-73
2023/06/26 03:19:06;;;;;;;7.60;6.80;;;;;;;13.56;83.09;100440.82;106118;277;39421;-73
2023/06/26 03:21:40;;;;;;;10.30;7.00;;;;;;;13.62;83.22;100440.30;105665;277;39364;-73
2023/06/26 03:24:14;;;;;;;9.10;7.20;;;;;;;13.67;83.23;100438.52;105639;276;38462;-73
2023/06/26 03:26:48;;;;;;;7.80;7.00;;;;;;;13.72;83.40;100440.00;105403;277;38254;-73
2023/06/26 03:29:23;;;;;;;7.70;7.00;;;;;;;13.80;83.68;100439.63;105418;278;38969;-73
2023/06/26 03:31:57;;;;;;;8.30;7.50;;;;;;;13.93;84.14;100436.49;105697;277;38528;-73
2023/06/26 03:34:31;;;;;;;8.40;7.60;;;;;;;14.10;84.11;100440.39;105692;277;39288;-73
2023/06/26 03:37:06;;;;;;;11.70;7.40;;;;;;;14.33;84.12;100438.81;105575;277;174685;-73
2023/06/26 03:39:40;;;;;;;9.00;7.10;;;;;;;14.75;84.30;100436.77;105679;277;38230;-73
2023/06/26 03:42:14;;;;;;;8.20;7.10;;;;;;;15.34;85.13;100438.93;105661;277;38240;-73
2023/06/26 03:44:48;;;;;;;8.70;6.80;;;;;;;16.12;84.97;100434.09;105654;277;39390;-73
2023/06/26 03:47:22;;;;;;;7.10;6.40;;;;;;;17.04;83.99;100436.50;106078;276;38373;-73
2023/06/26 03:49:57;;;;;;;7.70;7.00;;;;;;;18.01;82.49;100434.34;105658;277;39450;-73
2023/06/26 03:52:31;;;;;;;7.50;6.70;;;;;;;19.02;80.31;100433.98;105656;277;39730;-73
2023/06/26 03:55:06;;;;;;;7.40;6.70;;;;;;;19.94;76.94;100430.73;105713;277;38240;-73
2023/06/26 03:57:41;;;;;;;8.80;7.20;;;;;;;20.73;73.53;100430.61;105487;277;38243;-73
2023/06/26 04:00:18;;;;;;;7.90;7.00;;;;;;;21.46;70.37;100432.77;105556;277;173892;-73
2023/06/26 04:02:52;;;;;;;8.00;7.20;;;;;;;22.16;67.36;100430.47;105678;277;38402;-74
2023/06/26 04:05:26;;;;;;;8.50;7.50;;;;;;;22.68;64.50;100432.89;105694;277;39651;-74
2023/06/26 04:08:01;;;;;;;8.10;7.40;;;;;;;23.11;62.06;100436.94;105669;277;39393;-74
2023/06/26 04:10:36;;;;;;;8.40;7.60;;;;;;;23.59;60.71;100432.73;105469;277;39241;-74
2023/06/26 04:13:10;;;;;;;8.60;7.40;;;;;;;24.07;58.07;100429.14;106159;277;38857;-74
2023/06/26 04:15:45;;;;;;;9.10;8.20;;;;;;;24.57;56.17;100431.20;105670;277;39415;-74
2023/06/26 04:18:20;;;;;;;8.70;7.40;;;;;;;25.14;55.06;100433.95;105656;277;39220;-74
2023/06/26 04:21:12;;;;;;;9.70;8.70;;;;;;;25.56;52.84;100431.00;105676;277;38289;-74
2023/06/26 04:23:47;;;;;;;8.80;7.90;;;;;;;26.19;50.84;100428.04;105680;277;38506;-75
2023/06/26 04:26:21;;;;;;;9.40;8.20;;;;;;;26.47;49.22;100431.58;106086;277;39437;-75
2023/06/26 04:28:55;;;;;;;10.10;8.30;;;;;;;26.15;48.44;100428.77;105414;277;38867;-75
2023/06/26 04:31:30;;;;;;;10.10;9.00;;;;;;;25.64;48.11;100428.06;105695;277;38828;-75
2023/06/26 04:34:04;;;;;;;9.40;8.50;;;;;;;25.12;48.67;100431.77;105669;277;38863;-75
2023/06/26 04:36:39;;;;;;;9.80;8.40;;;;;;;24.57;49.60;100433.22;106070;277;38772;-75
2023/06/26 04:39:14;;;;;;;9.30;8.30;;;;;;;24.08;50.23;100437.45;106088;277;39919;-75
2023/06/26 04:41:49;;;;;;;9.90;7.90;;;;;;;23.65;50.57;100439.34;105673;277;38227;-75
2023/06/26 04:44:23;;;;;;;10.00;8.50;;;;;;;23.25;51.65;100435.67;105562;277;173815;-75
2023/06/26 04:46:57;;;;;;;9.40;8.20;;;;;;;22.87;52.77;100437.58;105673;277;39563;-75
2023/06/26 04:49:32;;;;;;;9.40;8.50;;;;;;;22.58;53.35;100436.22;106141;281;38606;-75
2023/06/26 04:52:06;;;;;;;9.30;8.30;;;;;;;22.58;54.40;100436.63;106111;277;39106;-74
2023/06/26 04:54:40;;;;;;;9.50;8.20;;;;;;;22.94;54.13;100433.64;105666;277;39198;-74
2023/06/26 04:57:14;;;;;;;8.80;7.80;;;;;;;23.44;54.21;100435.38;105653;277;38270;-74
2023/06/26 04:59:49;;;;;;;8.40;7.60;;;;;;;23.93;53.17;100434.91;105662;277;38239;-74
2023/06/26 05:02:23;;;;;;;8.90;8.00;;;;;;;24.31;52.13;100429.95;105710;276;38509;-75
2023/06/26 05:04:57;;;;;;;9.90;7.60;;;;;;;24.88;51.57;100429.88;105684;277;38220;-75
2023/06/26 05:07:31;;;;;;;8.40;7.60;;;;;;;25.64;50.23;100429.37;105693;277;38532;-75
2023/06/26 05:10:06;;;;;;;8.10;7.10;;;;;;;26.45;48.78;100428.64;106114;277;38279;-75
2023/06/26 05:12:40;;;;;;;8.30;7.30;;;;;;;27.32;46.88;100428.02;106083;276;38284;-75
2023/06/26 05:15:14;;;;;;;8.40;7.60;;;;;;;28.20;45.11;100425.66;105644;277;38540;-75
2023/06/26 05:17:49;;;;;;;7.50;6.80;;;;;;;28.86;43.28;100425.96;105677;277;38281;-75
2023/06/26 05:20:23;;;;;;;8.50;7.60;;;;;;;29.56;41.51;100420.55;105662;277;38230;-75
2023/06/26 05:22:57;;;;;;;8.40;7.60;;;;;;;30.03;40.33;100418.09;105672;277;39103;-75
2023/06/26 05:25:31;;;;;;;9.00;8.10;;;;;;;30.59;38.75;100416.37;105675;277;38223;-75
2023/06/26 05:28:08;;;;;;;7.30;6.60;;;;;;;30.98;38.08;100415.77;106112;277;38275;-75
2023/06/26 05:30:44;;;;;;;6.90;6.30;;;;;;;31.31;37.16;100415.23;105659;276;38880;-75
2023/06/26 05:33:19;;;;;;;7.50;6.70;;;;;;;31.77;36.47;100410.61;105429;276;39670;-75
2023/06/26 05:35:53;;;;;;;7.20;6.60;;;;;;;32.25;35.29;100405.98;105656;276;38495;-75
2023/06/26 05:38:29;;;;;;;7.30;6.30;;;;;;;32.45;34.45;100407.67;105678;277;38363;-75
2023/06/26 05:41:04;;;;;;;7.50;6.40;;;;;;;32.68;34.25;100408.49;105351;277;173270;-75
2023/06/26 05:43:39;;;;;;;6.90;5.90;;;;;;;32.73;34.27;100403.34;105674;276;38224;-75
2023/06/26 05:46:14;;;;;;;6.80;5.60;;;;;;;32.97;33.82;100409.89;105689;277;39383;-75
2023/06/26 05:48:48;;;;;;;6.40;5.90;;;;;;;33.28;34.29;100412.63;105428;277;40984;-75
2023/06/26 05:51:23;;;;;;;6.80;6.10;;;;;;;33.25;33.71;100410.80;105677;277;38428;-75
2023/06/26 05:53:59;;;;;;;7.00;6.30;;;;;;;33.35;33.54;100404.41;105666;276;38506;-75
2023/06/26 05:56:34;;;;;;;8.00;6.80;;;;;;;33.61;32.93;100404.41;106100;276;38411;-76
2023/06/26 05:59:08;;;;;;;8.30;6.60;;;;;;;33.73;33.07;100400.44;105286;276;170720;-76
2023/06/26 06:01:43;;;;;;;6.80;6.30;;;;;;;33.96;32.76;100402.59;105640;277;38353;-76
2023/06/26 06:04:17;;;;;;;7.00;6.30;;;;;;;34.33;32.30;100399.56;105664;277;38604;-76
2023/06/26 06:06:52;;;;;;;7.80;5.90;;;;;;;34.85;31.31;100398.57;105669;276;38941;-76
2023/06/26 06:09:26;;;;;;;6.60;5.30;;;;;;;35.30;29.95;100401.21;105733;277;38344;-76
2023/06/26 06:12:03;;;;;;;6.10;5.50;;;;;;;35.76;29.11;100402.40;105631;277;38774;-76
2023/06/26 06:14:37;;;;;;;6.10;5.30;;;;;;;36.02;28.69;100397.84;105653;277;39931;-76
2023/06/26 06:17:12;;;;;;;6.30;5.80;;;;;;;36.36;28.24;100397.42;105655;277;38378;-76
2023/06/26 06:19:46;;;;;;;5.90;5.40;;;;;;;36.56;27.56;100396.65;105656;277;38243;-76
2023/06/26 06:22:20;;;;;;;5.80;5.30;;;;;;;36.78;27.47;100393.86;105408;278;40453;-76
2023/06/26 06:24:55;;;;;;;5.50;5.00;;;;;;;36.86;27.05;100393.01;105674;277;38510;-76
2023/06/26 06:27:30;;;;;;;5.80;5.30;;;;;;;36.90;27.45;100390.27;105381;279;38682;-76
2023/06/26 06:30:06;;;;;;;6.50;5.40;;;;;;;37.17;27.19;100389.00;105016;277;666467;-76
2023/06/26 06:32:40;;;;;;;5.70;5.20;;;;;;;37.33;26.90;100385.96;105641;277;38523;-76
2023/06/26 06:35:15;;;;;;;5.50;5.00;;;;;;;37.45;26.59;100385.20;105680;277;38502;-76
2023/06/26 06:37:49;;;;;;;6.50;5.10;;;;;;;37.75;25.86;100383.33;105499;277;187263;-76
2023/06/26 06:40:24;;;;;;;5.10;4.60;;;;;;;37.96;25.81;100384.72;105660;277;39453;-76
2023/06/26 06:42:59;;;;;;;5.20;4.80;;;;;;;38.00;25.87;100383.45;105661;277;38994;-76
2023/06/26 06:45:34;;;;;;;4.90;4.50;;;;;;;38.10;25.56;100384.61;105673;277;38380;-76
2023/06/26 06:48:11;;;;;;;4.90;4.50;;;;;;;38.20;24.59;100380.60;105380;278;40148;-76
2023/06/26 06:50:46;;;;;;;5.20;4.70;;;;;;;38.17;24.95;100376.70;105059;277;882727;-76
2023/06/26 06:53:21;;;;;;;4.80;4.40;;;;;;;38.42;24.69;100375.97;105677;277;38581;-76
2023/06/26 06:55:56;;;;;;;7.00;4.20;;;;;;;38.85;23.55;100375.27;105699;277;39054;-78
2023/06/26 06:58:30;;;;;;;4.50;4.10;;;;;;;39.25;23.28;100376.56;105687;277;38426;-78
2023/06/26 07:01:05;;;;;;;5.20;4.30;;;;;;;39.33;22.29;100375.79;105679;277;38932;-76
2023/06/26 07:03:40;;;;;;;4.30;3.90;;;;;;;39.35;23.08;100373.58;105465;277;882534;-76
2023/06/26 07:06:14;;;;;;;4.60;4.30;;;;;;;39.40;22.11;100373.77;105711;277;39754;-77
2023/06/26 07:08:49;;;;;;;5.00;4.70;;;;;;;39.19;22.74;100371.92;106099;277;39559;-77
2023/06/26 07:11:23;;;;;;;5.10;4.60;;;;;;;39.23;23.22;100370.41;105670;277;38722;-76
2023/06/26 07:14:00;;;;;;;5.00;4.50;;;;;;;39.09;22.38;100369.25;105661;277;38795;-76
2023/06/26 07:16:34;;;;;;;;;;;;;;;39.14;22.85;100367.99;105717;276;38571;-76
2023/06/26 07:19:10;;;;;;;5.20;4.40;;;;;;;39.40;22.68;100367.41;105635;277;39785;-76
2023/06/26 07:21:46;;;;;;;4.80;4.40;;;;;;;39.91;22.64;100363.08;105673;277;38539;-75
2023/06/26 07:24:21;;;;;;;4.50;4.10;;;;;;;40.14;22.21;100364.48;105681;277;38420;-76
2023/06/26 07:26:56;;;;;;;3.90;3.60;;;;;;;40.19;22.16;100364.16;105675;277;38270;-76
2023/06/26 07:29:31;;;;;;;4.20;3.90;;;;;;;40.27;21.32;100367.12;106136;277;38252;-78
2023/06/26 07:32:10;;;;;;;4.20;3.80;;;;;;;40.37;21.18;100366.92;105545;277;38452;-80
2023/06/26 07:34:48;;;;;;;4.40;3.90;;;;;;;40.13;21.11;100363.70;106154;277;38906;-77
2023/06/26 07:37:23;;;;;;;4.30;4.00;;;;;;;40.09;21.64;100364.64;105697;277;38850;-76
2023/06/26 07:39:58;;;;;;;4.30;4.00;;;;;;;40.29;20.98;100363.69;106102;277;38559;-79
2023/06/26 07:42:32;;;;;;;4.60;4.10;;;;;;;40.44;20.94;100366.79;105686;277;38278;-78
2023/06/26 07:45:10;;;;;;;3.70;3.30;;;;;;;40.56;21.05;100361.57;105680;277;38297;-77
2023/06/26 07:47:45;;;;;;;4.20;3.80;;;;;;;40.82;20.28;100360.21;105647;277;38358;-78
2023/06/26 07:50:27;;;;;;;6.80;3.80;;;;;;;41.10;20.24;100361.40;105666;277;39555;-78
2023/06/26 07:53:05;;;;;;;4.00;3.70;;;;;;;41.17;19.85;100364.59;105653;277;38226;-78
2023/06/26 07:55:40;;;;;;;3.40;3.20;;;;;;;41.09;19.44;100361.77;106092;277;38945;-77
2023/06/26 07:58:15;;;;;;;3.90;3.70;;;;;;;41.05;19.08;100358.83;105377;279;38264;-73
2023/06/26 08:00:52;;;;;;;3.80;3.50;;;;;;;40.93;18.50;100359.41;105663;277;38242;-74
2023/06/26 08:03:27;;;;;;;4.50;3.80;;;;;;;40.54;18.41;100360.92;105696;277;38430;-74
2023/06/26 08:06:01;;;;;;;4.20;3.80;;;;;;;40.41;18.93;100363.57;106177;277;38466;-78
2023/06/26 08:08:36;;;;;;;3.70;3.40;;;;;;;40.65;19.05;100356.42;105713;277;40260;-79
2023/06/26 08:11:13;;;;;;;3.70;3.40;;;;;;;40.60;18.30;100354.65;105736;277;38231;-78
2023/06/26 08:13:48;;;;;;;3.70;3.40;;;;;;;40.48;18.37;100351.98;105401;277;38252;-77
2023/06/26 08:16:23;;;;;;;5.00;3.70;;;;;;;40.70;18.49;100350.93;105370;277;38278;-77
2023/06/26 08:18:58;;;;;;;3.90;3.60;;;;;;;40.76;18.19;100352.59;105657;277;40006;-76
2023/06/26 08:21:32;;;;;;;4.00;3.70;;;;;;;40.00;18.69;100355.69;105673;277;39449;-75
2023/06/26 08:24:06;;;;;;;5.40;3.80;;;;;;;39.13;19.60;100351.27;105669;276;39372;-75
2023/06/26 08:26:41;;;;;;;4.30;3.90;;;;;;;38.25;20.32;100344.58;105662;277;39369;-75
2023/06/26 08:29:15;;;;;;;4.00;3.40;;;;;;;37.21;20.34;100349.52;105674;277;39618;-77
2023/06/26 08:31:49;;;;;;;3.50;3.20;;;;;;;36.22;20.83;100349.02;105664;276;38228;-77
2023/06/26 08:34:24;;;;;;;5.10;3.30;;;;;;;36.21;21.82;100347.35;105398;277;38984;-77
2023/06/26 08:36:58;;;;;;;4.90;3.40;;;;;;;35.96;22.34;100344.67;105624;277;39398;-77
2023/06/26 08:39:33;;;;;;;4.30;3.90;;;;;;;35.34;23.40;100348.33;105396;281;38566;-76
2023/06/26 08:42:08;;;;;;;4.40;4.10;;;;;;;34.98;23.99;100344.41;105668;276;38371;-76
2023/06/26 08:44:42;;;;;;;4.20;3.80;;;;;;;34.74;24.57;100343.58;105713;277;38364;-76
2023/06/26 08:47:16;;;;;;;4.40;4.00;;;;;;;34.89;24.73;100344.58;105668;277;38320;-75
2023/06/26 08:49:54;;;;;;;3.80;3.50;;;;;;;35.00;24.57;100346.16;105686;277;38375;-75
2023/06/26 08:52:31;;;;;;;3.30;3.00;;;;;;;35.74;23.42;100341.86;105680;277;38759;-75
2023/06/26 08:55:12;;;;;;;4.00;3.30;;;;;;;36.62;22.76;100338.14;105687;276;39638;-76
2023/06/26 08:57:47;;;;;;;3.70;3.30;;;;;;;37.44;22.38;100334.73;105672;277;38784;-75
2023/06/26 09:00:22;;;;;;;3.40;3.20;;;;;;;38.04;20.40;100333.98;105656;276;38557;-76
2023/06/26 09:02:56;;;;;;;4.10;3.20;;;;;;;38.51;19.63;100336.51;105441;277;38865;-76
2023/06/26 09:05:31;;;;;;;3.80;3.50;;;;;;;38.86;19.48;100329.77;105671;276;38757;-76
2023/06/26 09:08:06;;;;;;;3.90;3.50;;;;;;;39.09;19.07;100331.82;104800;277;883019;-76
2023/06/26 09:10:42;;;;;;;3.80;3.50;;;;;;;38.97;19.38;100330.89;105673;277;38342;-77
2023/06/26 09:13:16;;;;;;;4.10;3.40;;;;;;;39.01;20.79;100333.64;105459;277;38559;-77
2023/06/26 09:15:50;;;;;;;4.80;3.80;;;;;;;38.71;20.66;100330.56;105685;277;38792;-76
2023/06/26 09:18:25;;;;;;;3.50;3.30;;;;;;;38.18;21.31;100326.83;105643;277;38404;-75
2023/06/26 09:21:00;;;;;;;4.00;3.60;;;;;;;38.09;21.44;100328.06;106141;277;38504;-76
2023/06/26 09:23:35;;;;;;;3.70;3.40;;;;;;;38.12;21.43;100322.05;105666;276;38772;-76
2023/06/26 09:26:09;;;;;;;3.40;3.10;;;;;;;38.14;20.71;100315.71;105651;277;39591;-75
2023/06/26 09:28:47;;;;;;;4.00;3.60;;;;;;;38.09;20.59;100308.00;105657;277;39380;-75
2023/06/26 09:31:22;;;;;;;4.30;3.90;;;;;;;38.00;20.44;100314.83;105677;276;38700;-76
2023/06/26 09:33:58;;;;;;;4.10;3.80;;;;;;;37.82;20.22;100310.19;105458;277;39442;-76
2023/06/26 09:36:36;;;;;;;3.90;3.30;;;;;;;37.49;20.91;100311.53;105659;277;39471;-76
2023/06/26 09:39:12;;;;;;;5.80;3.50;;;;;;;36.99;20.78;100315.27;106093;277;38546;-77
2023/06/26 09:41:47;;;;;;;3.40;3.10;;;;;;;36.21;21.32;100314.09;105573;276;173168;-77
2023/06/26 09:44:21;;;;;;;3.60;3.30;;;;;;;35.50;22.12;100315.25;106133;277;39658;-76
2023/06/26 09:46:55;;;;;;;4.50;3.20;;;;;;;34.72;22.61;100314.61;105654;277;38765;-76
2023/06/26 09:49:30;;;;;;;5.40;3.20;;;;;;;34.51;23.63;100312.76;106129;277;38372;-76
2023/06/26 09:52:04;;;;;;;4.50;3.10;;;;;;;34.55;23.47;100312.53;105396;276;39520;-75
2023/06/26 09:54:39;;;;;;;3.80;3.40;;;;;;;34.58;22.79;100309.20;105672;277;39992;-76
2023/06/26 09:57:13;;;;;;;3.60;2.70;;;;;;;34.52;21.79;100308.27;105636;277;38352;-76
2023/06/26 09:59:48;;;;;;;3.40;2.80;;;;;;;34.40;21.78;100307.29;105363;279;40718;-76
2023/06/26 10:02:22;;;;;;;3.40;3.10;;;;;;;34.37;21.78;100304.17;105671;277;38231;-76
2023/06/26 10:04:56;;;;;;;3.40;3.10;;;;;;;34.29;22.84;100304.49;105655;277;38459;-75
2023/06/26 10:07:31;;;;;;;3.80;2.80;;;;;;;34.10;23.55;100298.68;106123;277;38275;-75
2023/06/26 10:10:05;;;;;;;3.90;3.30;;;;;;;33.79;24.12;100298.21;105665;277;38722;-75
2023/06/26 10:12:40;;;;;;;3.30;2.90;;;;;;;33.49;24.32;100303.64;105642;276;38276;-75
2023/06/26 10:15:16;;;;;;;3.60;3.10;;;;;;;33.35;25.22;100299.91;105676;277;38748;-75
2023/06/26 10:17:51;;;;;;;3.10;2.90;;;;;;;33.42;25.44;100296.37;105295;278;173309;-75
2023/06/26 10:20:25;;;;;;;3.40;3.00;;;;;;;33.47;24.46;100300.35;104937;276;883546;-75
2023/06/26 10:23:00;;;;;;;3.30;3.00;;;;;;;33.56;25.18;100288.44;105642;277;38463;-75
2023/06/26 10:25:35;;;;;;;3.10;2.80;;;;;;;33.79;24.42;100285.36;105709;277;38685;-75
2023/06/26 10:28:09;;;;;;;3.80;2.90;;;;;;;33.65;23.33;100280.16;105683;277;39940;-75
2023/06/26 10:30:44;;;;;;;3.30;3.00;;;;;;;33.23;23.74;100280.83;105632;277;38518;-75
2023/06/26 10:33:18;;;;;;;3.50;3.20;;;;;;;32.87;24.62;100282.20;105644;281;39609;-76
2023/06/26 10:35:52;;;;;;;5.10;3.40;;;;;;;32.46;24.94;100276.86;106100;277;38785;-75
2023/06/26 10:38:26;;;;;;;3.70;3.10;;;;;;;32.05;24.86;100273.38;106092;277;38862;-75
2023/06/26 10:41:00;;;;;;;3.80;3.30;;;;;;;31.56;25.19;100271.02;106122;277;38825;-76
2023/06/26 10:43:35;;;;;;;3.50;3.20;;;;;;;31.20;25.55;100278.58;105647;277;39721;-77
2023/06/26 10:46:10;;;;;;;3.60;3.00;;;;;;;30.96;26.25;100279.21;105661;277;38525;-76
2023/06/26 10:49:01;;;;;;;4.20;3.10;;;;;;;30.78;26.55;100281.67;105408;278;38524;-76
2023/06/26 10:51:35;;;;;;;6.30;3.60;;;;;;;30.69;26.97;100276.06;105633;277;39401;-76
2023/06/26 10:54:09;;;;;;;4.60;3.20;;;;;;;30.85;27.19;100267.81;105708;277;38399;-75
2023/06/26 10:56:50;;;;;;;3.50;3.20;;;;;;;31.09;27.31;100265.33;105679;277;39441;-76
2023/06/26 10:59:26;;;;;;;3.30;3.00;;;;;;;31.24;27.21;100267.04;106123;277;38806;-75
2023/06/26 11:02:01;;;;;;;3.50;3.20;;;;;;;31.17;27.52;100267.18;105646;277;39931;-75
2023/06/26 11:04:47;;;;;;;3.80;3.20;;;;;;;30.94;26.50;100262.02;105659;277;38265;-76
2023/06/26 11:07:23;;;;;;;6.40;3.00;;;;;;;30.57;26.87;100265.73;105689;277;38234;-76
2023/06/26 11:10:01;;;;;;;4.90;3.10;;;;;;;30.37;27.50;100263.50;106098;277;38362;-75
2023/06/26 11:12:43;;;;;;;3.20;2.90;;;;;;;30.20;27.87;100261.64;105667;277;39522;-75
2023/06/26 11:15:17;;;;;;;3.40;3.00;;;;;;;30.09;28.58;100253.63;105684;277;38782;-75
2023/06/26 11:17:52;;;;;;;3.10;2.90;;;;;;;29.93;29.00;100250.21;105672;277;38330;-75
2023/06/26 11:20:26;;;;;;;4.00;2.90;;;;;;;29.75;28.94;100245.93;105664;277;39820;-76
2023/06/26 11:23:01;;;;;;;3.70;2.80;;;;;;;29.59;29.12;100243.04;105661;277;38228;-76
2023/06/26 11:25:37;;;;;;;3.70;3.40;;;;;;;29.58;28.52;100236.28;105396;279;39576;-76
2023/06/26 11:28:14;;;;;;;5.70;3.70;;;;;;;29.82;28.70;100231.52;105393;278;38595;-76
2023/06/26 11:30:48;;;;;;;4.20;3.20;;;;;;;30.03;28.32;100232.59;105363;277;39923;-76
2023/06/26 11:33:27;;;;;;;4.30;3.20;;;;;;;30.11;28.85;100230.90;105660;277;39402;-76
2023/06/26 11:36:15;;;;;;;4.30;3.50;;;;;;;30.07;29.28;100236.11;105432;278;38359;-75
2023/06/26 11:39:09;;;;;;;3.70;2.70;;;;;;;29.95;29.04;100234.34;105659;277;40154;-76
2023/06/26 11:41:43;;;;;;;3.00;2.50;;;;;;;29.90;28.47;100234.24;105666;277;38275;-77
2023/06/26 11:44:20;;;;;;;3.40;2.80;;;;;;;29.83;28.45;100232.40;105428;277;41744;-76
2023/06/26 11:46:56;;;;;;;3.30;3.00;;;;;;;29.67;27.63;100234.63;105419;277;38905;-76
2023/06/26 11:49:31;;;;;;;3.10;2.80;;;;;;;29.44;27.27;100233.30;105675;276;38221;-75
2023/06/26 11:52:07;;;;;;;4.40;2.90;;;;;;;29.23;27.61;100231.94;105683;277;38317;-74
2023/06/26 11:54:42;;;;;;;4.30;3.00;;;;;;;29.20;27.82;100226.11;105664;277;39024;-76
2023/06/26 11:57:19;;;;;;;3.70;3.00;;;;;;;29.35;27.90;100219.56;105433;277;38248;-76
2023/06/26 11:59:54;;;;;;;7.30;3.30;;;;;;;29.58;27.92;100224.03;105658;277;38543;-74